createdAt,value
2023-03-22T00:01:13.258Z,7.40
2023-03-22T00:06:19.733Z,7.40
2023-03-22T00:11:26.028Z,7.30
2023-03-22T00:16:31.353Z,7.30
2023-03-22T00:21:36.565Z,7.20
2023-03-22T00:26:41.724Z,7.10
2023-03-22T00:31:46.907Z,7.10
2023-03-22T00:36:52.179Z,7.00
2023-03-22T00:41:57.615Z,7.00
2023-03-22T00:47:02.875Z,7.00
2023-03-22T00:52:08.003Z,7.00
2023-03-22T00:57:14.308Z,7.00
2023-03-22T01:02:19.460Z,7.00
2023-03-22T01:07:24.704Z,7.00
2023-03-22T01:12:30.114Z,7.00
2023-03-22T01:17:35.424Z,7.00
2023-03-22T01:22:40.599Z,7.00
2023-03-22T01:27:46.172Z,7.00
2023-03-22T01:32:51.425Z,7.00
2023-03-22T01:37:56.543Z,7.00
2023-03-22T01:43:01.697Z,6.90
2023-03-22T01:48:15.636Z,6.90
2023-03-22T01:53:22.557Z,6.90
2023-03-22T01:58:27.852Z,6.90
2023-03-22T02:03:48.115Z,6.90
2023-03-22T02:08:55.022Z,7.00
2023-03-22T02:14:05.749Z,6.90
2023-03-22T02:19:30.728Z,6.90
2023-03-22T02:25:04.045Z,6.90
2023-03-22T02:30:39.459Z,6.90
2023-03-22T02:35:50.147Z,6.90
2023-03-22T02:41:23.729Z,6.90
2023-03-22T02:46:37.753Z,6.90
2023-03-22T02:51:48.696Z,6.90
2023-03-22T02:56:59.812Z,7.00
2023-03-22T03:02:06.837Z,7.00
2023-03-22T03:07:14.818Z,7.00
2023-03-22T03:12:22.836Z,7.10
2023-03-22T03:17:51.155Z,7.10
2023-03-22T03:23:08.247Z,7.10
2023-03-22T03:28:32.591Z,7.10
2023-03-22T03:33:40.697Z,7.20
2023-03-22T03:38:49.136Z,7.20
2023-03-22T03:43:56.256Z,7.20
2023-03-22T03:49:03.621Z,7.30
2023-03-22T03:54:08.739Z,7.30
2023-03-22T03:59:15.561Z,7.30
2023-03-22T04:04:24.768Z,7.30
2023-03-22T04:09:33.319Z,7.30
2023-03-22T04:14:38.874Z,7.20
2023-03-22T04:19:45.845Z,7.20
2023-03-22T04:24:51.855Z,7.20
2023-03-22T04:29:58.142Z,7.20
2023-03-22T04:35:03.360Z,7.20
2023-03-22T04:40:09.424Z,7.10
2023-03-22T04:45:15.583Z,7.10
2023-03-22T04:50:21.118Z,7.00
2023-03-22T04:55:27.727Z,7.10
2023-03-22T05:00:32.941Z,7.00
2023-03-22T05:05:40.158Z,7.00
2023-03-22T05:10:45.485Z,7.00
2023-03-22T05:15:51.986Z,7.00
2023-03-22T05:20:57.880Z,7.10
2023-03-22T05:26:04.347Z,7.10
2023-03-22T05:31:11.879Z,7.10
2023-03-22T05:36:17.615Z,7.10
2023-03-22T05:41:22.961Z,7.20
2023-03-22T05:46:28.280Z,7.20
2023-03-22T05:51:34.074Z,7.30
2023-03-22T05:56:39.982Z,7.30
2023-03-22T06:01:45.242Z,7.40
2023-03-22T06:06:50.701Z,7.40
2023-03-22T06:11:55.991Z,7.40
2023-03-22T06:17:01.384Z,7.40
2023-03-22T06:22:06.620Z,7.50
2023-03-22T06:27:12.406Z,7.50
2023-03-22T06:32:17.869Z,7.50
2023-03-22T06:37:23.861Z,7.60
2023-03-22T06:42:31.129Z,7.70
2023-03-22T06:47:36.593Z,7.80
2023-03-22T06:52:41.916Z,7.80
2023-03-22T06:57:47.098Z,7.90
2023-03-22T07:02:52.897Z,8.00
2023-03-22T07:07:58.399Z,8.20
2023-03-22T07:13:03.769Z,8.30
2023-03-22T07:18:10.762Z,8.40
2023-03-22T07:23:16.754Z,8.40
2023-03-22T07:28:22.276Z,8.50
2023-03-22T07:33:27.728Z,8.70
2023-03-22T07:38:33.060Z,8.80
2023-03-22T07:43:52.397Z,8.90
2023-03-22T07:48:45.803Z,9.10
2023-03-22T07:53:51.125Z,9.20
2023-03-22T07:58:57.563Z,9.30
2023-03-22T08:04:03.001Z,9.40
2023-03-22T08:09:10.088Z,9.50
2023-03-22T08:14:30.580Z,9.50
2023-03-22T08:19:26.122Z,9.60
2023-03-22T08:24:31.520Z,9.60
2023-03-22T08:29:40.468Z,9.70
2023-03-22T08:34:46.075Z,9.80
2023-03-22T08:39:51.560Z,9.80
2023-03-22T08:44:58.935Z,9.80
2023-03-22T08:50:03.951Z,9.80
2023-03-22T08:55:10.146Z,9.80
2023-03-22T09:00:20.298Z,9.90
2023-03-22T09:05:28.751Z,9.90
2023-03-22T09:10:34.199Z,9.90
2023-03-22T09:15:39.830Z,9.90
2023-03-22T09:20:47.563Z,10.00
2023-03-22T09:25:52.931Z,10.00
2023-03-22T09:31:11.361Z,10.10
2023-03-22T09:36:17.135Z,10.20
2023-03-22T09:41:34.273Z,10.30
2023-03-22T09:46:42.877Z,10.50
2023-03-22T09:51:51.263Z,10.60
2023-03-22T09:57:00.807Z,10.70
2023-03-22T10:02:25.579Z,10.80
2023-03-22T10:07:34.024Z,10.90
2023-03-22T10:12:42.343Z,11.10
2023-03-22T10:17:53.436Z,11.30
2023-03-22T10:23:02.435Z,11.30
2023-03-22T10:28:23.085Z,11.40
2023-03-22T10:33:34.634Z,11.50
2023-03-22T10:38:43.306Z,11.40
2023-03-22T10:43:51.924Z,11.40
2023-03-22T10:49:00.189Z,11.40
2023-03-22T10:54:06.344Z,11.40
2023-03-22T10:59:31.415Z,11.40
2023-03-22T11:04:38.444Z,11.60
2023-03-22T11:09:44.012Z,12.30
2023-03-22T11:14:51.443Z,12.70
2023-03-22T11:20:02.697Z,13.00
2023-03-22T11:25:17.400Z,13.10
2023-03-22T11:30:28.747Z,13.10
2023-03-22T11:41:31.384Z,13.20
2023-03-22T11:46:37.755Z,13.40
2023-03-22T11:51:44.897Z,13.40
2023-03-22T11:56:50.800Z,13.50
2023-03-22T12:02:24.033Z,13.60
2023-03-22T12:07:32.693Z,13.80
2023-03-22T12:12:41.091Z,13.90
2023-03-22T12:17:52.361Z,14.10
2023-03-22T12:22:59.224Z,14.20
2023-03-22T12:28:10.972Z,14.00
2023-03-22T12:33:31.377Z,13.90
2023-03-22T12:38:57.576Z,14.00
2023-03-22T12:44:30.521Z,14.00
2023-03-22T12:49:40.614Z,14.10
2023-03-22T12:54:55.760Z,14.00
2023-03-22T13:00:08.747Z,14.20
2023-03-22T13:05:14.549Z,14.40
2023-03-22T13:10:36.374Z,14.40
2023-03-22T13:15:59.596Z,14.50
2023-03-22T13:21:26.767Z,14.60
2023-03-22T13:26:47.534Z,14.60
2023-03-22T13:31:58.863Z,14.60
2023-03-22T13:37:05.990Z,14.50
2023-03-22T13:42:23.668Z,14.50
2023-03-22T13:47:39.206Z,14.60
2023-03-22T13:52:47.636Z,14.70
2023-03-22T13:58:01.994Z,14.70
2023-03-22T14:03:13.350Z,14.70
2023-03-22T14:08:24.751Z,14.60
2023-03-22T14:13:35.857Z,14.50
2023-03-22T14:18:55.153Z,14.40
